sensor_id;sensor_type;location;lat;lon;timestamp;P1;durP1;ratioP1;P2;durP2;ratioP2
17340;SDS011;8788;49.930;8.660;2023-01-30T04:04:24;11.75;;;7.95;;
17340;SDS011;8788;49.930;8.660;2023-01-30T04:06:51;11.75;;;7.35;;
17340;SDS011;8788;49.930;8.660;2023-01-30T04:09:18;13.07;;;6.88;;
17340;SDS011;8788;49.930;8.660;2023-01-30T04:11:48;14.32;;;7.88;;
17340;SDS011;8788;49.930;8.660;2023-01-30T04:14:16;11.85;;;6.80;;
17340;SDS011;8788;49.930;8.660;2023-01-30T04:17:12;11.98;;;7.20;;
17340;SDS011;8788;49.930;8.660;2023-01-30T04:19:58;10.52;;;6.47;;
17340;SDS011;8788;49.930;8.660;2023-01-30T04:22:26;13.55;;;8.10;;
17340;SDS011;8788;49.930;8.660;2023-01-30T04:24:53;13.70;;;8.30;;
17340;SDS011;8788;49.930;8.660;2023-01-30T04:27:20;14.13;;;8.80;;
17340;SDS011;8788;49.930;8.660;2023-01-30T04:30:06;14.05;;;7.70;;
17340;SDS011;8788;49.930;8.660;2023-01-30T04:32:34;14.35;;;8.60;;
17340;SDS011;8788;49.930;8.660;2023-01-30T04:35:03;15.35;;;8.13;;
17340;SDS011;8788;49.930;8.660;2023-01-30T04:37:31;17.45;;;8.85;;
17340;SDS011;8788;49.930;8.660;2023-01-30T04:39:58;9.32;;;6.93;;
17340;SDS011;8788;49.930;8.660;2023-01-30T04:42:26;13.82;;;8.05;;
17340;SDS011;8788;49.930;8.660;2023-01-30T04:45:13;11.98;;;6.45;;
17340;SDS011;8788;49.930;8.660;2023-01-30T04:47:40;12.63;;;8.35;;
17340;SDS011;8788;49.930;8.660;2023-01-30T04:50:11;15.52;;;8.73;;
17340;SDS011;8788;49.930;8.660;2023-01-30T04:52:38;10.55;;;7.90;;
17340;SDS011;8788;49.930;8.660;2023-01-30T04:55:06;11.52;;;6.72;;
17340;SDS011;8788;49.930;8.660;2023-01-30T04:57:34;12.10;;;8.27;;
17340;SDS011;8788;49.930;8.660;2023-01-30T05:00:02;14.07;;;7.78;;
17340;SDS011;8788;49.930;8.660;2023-01-30T05:02:33;16.23;;;9.35;;
17340;SDS011;8788;49.930;8.660;2023-01-30T05:05:00;11.18;;;6.22;;
17340;SDS011;8788;49.930;8.660;2023-01-30T05:07:29;14.52;;;8.65;;
17340;SDS011;8788;49.930;8.660;2023-01-30T05:09:56;15.82;;;9.00;;
17340;SDS011;8788;49.930;8.660;2023-01-30T05:12:23;13.85;;;8.75;;
17340;SDS011;8788;49.930;8.660;2023-01-30T05:14:50;11.73;;;7.32;;
17340;SDS011;8788;49.930;8.660;2023-01-30T05:17:17;16.35;;;9.38;;
17340;SDS011;8788;49.930;8.660;2023-01-30T05:19:44;13.13;;;7.95;;
17340;SDS011;8788;49.930;8.660;2023-01-30T05:22:11;15.32;;;8.65;;
17340;SDS011;8788;49.930;8.660;2023-01-30T05:24:39;13.88;;;8.48;;
17340;SDS011;8788;49.930;8.660;2023-01-30T05:27:06;14.63;;;9.57;;
17340;SDS011;8788;49.930;8.660;2023-01-30T05:29:33;18.65;;;10.52;;
17340;SDS011;8788;49.930;8.660;2023-01-30T05:32:02;17.88;;;9.27;;
17340;SDS011;8788;49.930;8.660;2023-01-30T05:34:29;17.67;;;9.73;;
17340;SDS011;8788;49.930;8.660;2023-01-30T05:36:56;13.82;;;8.27;;
17340;SDS011;8788;49.930;8.660;2023-01-30T05:39:23;16.67;;;10.40;;
17340;SDS011;8788;49.930;8.660;2023-01-30T05:41:51;12.63;;;7.78;;
17340;SDS011;8788;49.930;8.660;2023-01-30T05:44:18;17.58;;;7.60;;
17340;SDS011;8788;49.930;8.660;2023-01-30T05:46:46;17.02;;;8.75;;
17340;SDS011;8788;49.930;8.660;2023-01-30T05:49:13;15.15;;;8.57;;
17340;SDS011;8788;49.930;8.660;2023-01-30T05:51:40;15.95;;;8.23;;
17340;SDS011;8788;49.930;8.660;2023-01-30T05:54:07;12.43;;;6.90;;
17340;SDS011;8788;49.930;8.660;2023-01-30T05:56:34;13.68;;;8.05;;
17340;SDS011;8788;49.930;8.660;2023-01-30T05:59:03;17.40;;;9.70;;
17340;SDS011;8788;49.930;8.660;2023-01-30T06:01:30;15.32;;;8.48;;
17340;SDS011;8788;49.930;8.660;2023-01-30T06:03:57;14.15;;;7.18;;
17340;SDS011;8788;49.930;8.660;2023-01-30T06:06:24;16.27;;;8.95;;
17340;SDS011;8788;49.930;8.660;2023-01-30T06:08:51;15.52;;;9.10;;
17340;SDS011;8788;49.930;8.660;2023-01-30T06:11:19;14.38;;;8.48;;
17340;SDS011;8788;49.930;8.660;2023-01-30T06:13:46;12.98;;;6.75;;
17340;SDS011;8788;49.930;8.660;2023-01-30T06:16:15;9.52;;;6.32;;
17340;SDS011;8788;49.930;8.660;2023-01-30T06:18:43;12.02;;;7.90;;
17340;SDS011;8788;49.930;8.660;2023-01-30T06:21:11;15.45;;;7.22;;
17340;SDS011;8788;49.930;8.660;2023-01-30T06:23:39;11.65;;;7.85;;
17340;SDS011;8788;49.930;8.660;2023-01-30T06:26:06;16.75;;;9.23;;
17340;SDS011;8788;49.930;8.660;2023-01-30T06:28:34;13.30;;;8.35;;
17340;SDS011;8788;49.930;8.660;2023-01-30T06:31:01;16.48;;;9.45;;
17340;SDS011;8788;49.930;8.660;2023-01-30T06:33:32;13.30;;;8.55;;
17340;SDS011;8788;49.930;8.660;2023-01-30T06:35:59;13.55;;;7.88;;
17340;SDS011;8788;49.930;8.660;2023-01-30T06:38:26;16.15;;;8.25;;
17340;SDS011;8788;49.930;8.660;2023-01-30T06:40:53;13.40;;;8.23;;
17340;SDS011;8788;49.930;8.660;2023-01-30T06:43:20;13.50;;;7.95;;
17340;SDS011;8788;49.930;8.660;2023-01-30T06:45:47;12.52;;;7.63;;
17340;SDS011;8788;49.930;8.660;2023-01-30T06:48:14;25.08;;;9.77;;
17340;SDS011;8788;49.930;8.660;2023-01-30T06:50:44;14.35;;;8.10;;
17340;SDS011;8788;49.930;8.660;2023-01-30T06:53:12;12.23;;;7.40;;
17340;SDS011;8788;49.930;8.660;2023-01-30T06:55:39;7.53;;;5.72;;
17340;SDS011;8788;49.930;8.660;2023-01-30T06:58:07;10.10;;;6.03;;
17340;SDS011;8788;49.930;8.660;2023-01-30T07:00:35;13.00;;;7.63;;
17340;SDS011;8788;49.930;8.660;2023-01-30T07:03:04;13.75;;;6.07;;
17340;SDS011;8788;49.930;8.660;2023-01-30T07:05:33;10.25;;;6.63;;
17340;SDS011;8788;49.930;8.660;2023-01-30T07:08:03;8.90;;;6.53;;
17340;SDS011;8788;49.930;8.660;2023-01-30T07:10:31;10.77;;;6.28;;
17340;SDS011;8788;49.930;8.660;2023-01-30T07:12:58;11.70;;;6.43;;
17340;SDS011;8788;49.930;8.660;2023-01-30T07:15:25;10.57;;;7.40;;
17340;SDS011;8788;49.930;8.660;2023-01-30T07:17:52;8.23;;;5.60;;
17340;SDS011;8788;49.930;8.660;2023-01-30T07:20:20;13.00;;;6.57;;
17340;SDS011;8788;49.930;8.660;2023-01-30T07:22:49;9.30;;;6.10;;
17340;SDS011;8788;49.930;8.660;2023-01-30T07:25:18;11.35;;;7.25;;
17340;SDS011;8788;49.930;8.660;2023-01-30T07:27:49;12.95;;;6.85;;
17340;SDS011;8788;49.930;8.660;2023-01-30T07:30:17;13.02;;;7.18;;
17340;SDS011;8788;49.930;8.660;2023-01-30T07:32:47;15.38;;;6.55;;
17340;SDS011;8788;49.930;8.660;2023-01-30T07:35:15;13.57;;;7.97;;
17340;SDS011;8788;49.930;8.660;2023-01-30T07:37:43;12.52;;;7.40;;
17340;SDS011;8788;49.930;8.660;2023-01-30T07:40:11;12.20;;;6.85;;
17340;SDS011;8788;49.930;8.660;2023-01-30T07:42:40;14.23;;;7.65;;
17340;SDS011;8788;49.930;8.660;2023-01-30T07:45:08;11.68;;;6.47;;
17340;SDS011;8788;49.930;8.660;2023-01-30T07:47:35;11.93;;;7.07;;
17340;SDS011;8788;49.930;8.660;2023-01-30T07:50:03;12.65;;;7.65;;
17340;SDS011;8788;49.930;8.660;2023-01-30T07:52:31;11.63;;;7.03;;
17340;SDS011;8788;49.930;8.660;2023-01-30T07:54:58;15.02;;;6.70;;
17340;SDS011;8788;49.930;8.660;2023-01-30T07:57:25;10.50;;;6.78;;
17340;SDS011;8788;49.930;8.660;2023-01-30T07:59:53;10.82;;;6.88;;
17340;SDS011;8788;49.930;8.660;2023-01-30T08:02:20;12.38;;;7.13;;
17340;SDS011;8788;49.930;8.660;2023-01-30T08:04:47;11.05;;;6.57;;
17340;SDS011;8788;49.930;8.660;2023-01-30T08:07:14;10.07;;;6.32;;
17340;SDS011;8788;49.930;8.660;2023-01-30T08:09:41;16.60;;;7.22;;
17340;SDS011;8788;49.930;8.660;2023-01-30T08:12:08;7.30;;;5.63;;
17340;SDS011;8788;49.930;8.660;2023-01-30T08:14:35;8.50;;;5.63;;
17340;SDS011;8788;49.930;8.660;2023-01-30T08:17:04;11.02;;;6.82;;
17340;SDS011;8788;49.930;8.660;2023-01-30T08:19:31;9.63;;;5.97;;
17340;SDS011;8788;49.930;8.660;2023-01-30T08:21:58;13.75;;;6.95;;
17340;SDS011;8788;49.930;8.660;2023-01-30T08:24:25;11.35;;;6.55;;
17340;SDS011;8788;49.930;8.660;2023-01-30T08:26:52;8.40;;;6.05;;
17340;SDS011;8788;49.930;8.660;2023-01-30T08:29:19;8.45;;;5.70;;
17340;SDS011;8788;49.930;8.660;2023-01-30T08:31:46;15.05;;;6.65;;
17340;SDS011;8788;49.930;8.660;2023-01-30T08:34:15;10.88;;;6.38;;
17340;SDS011;8788;49.930;8.660;2023-01-30T08:36:42;9.85;;;6.53;;
17340;SDS011;8788;49.930;8.660;2023-01-30T08:39:11;11.85;;;7.93;;
17340;SDS011;8788;49.930;8.660;2023-01-30T08:41:39;12.88;;;6.22;;
17340;SDS011;8788;49.930;8.660;2023-01-30T08:44:07;8.05;;;5.97;;
17340;SDS011;8788;49.930;8.660;2023-01-30T08:46:34;9.63;;;6.30;;
17340;SDS011;8788;49.930;8.660;2023-01-30T08:49:01;10.68;;;6.65;;
17340;SDS011;8788;49.930;8.660;2023-01-30T08:51:30;10.27;;;6.22;;
17340;SDS011;8788;49.930;8.660;2023-01-30T08:53:57;8.68;;;6.20;;
17340;SDS011;8788;49.930;8.660;2023-01-30T08:56:24;9.32;;;6.32;;
17340;SDS011;8788;49.930;8.660;2023-01-30T08:58:51;11.00;;;5.38;;
17340;SDS011;8788;49.930;8.660;2023-01-30T09:01:18;8.60;;;5.93;;
17340;SDS011;8788;49.930;8.660;2023-01-30T09:03:46;10.50;;;5.95;;
17340;SDS011;8788;49.930;8.660;2023-01-30T09:06:13;9.75;;;6.57;;
17340;SDS011;8788;49.930;8.660;2023-01-30T09:08:42;10.63;;;5.93;;
17340;SDS011;8788;49.930;8.660;2023-01-30T09:11:09;7.65;;;5.20;;
17340;SDS011;8788;49.930;8.660;2023-01-30T09:13:37;7.65;;;5.35;;
17340;SDS011;8788;49.930;8.660;2023-01-30T09:16:07;9.40;;;5.63;;
17340;SDS011;8788;49.930;8.660;2023-01-30T09:18:36;10.75;;;5.95;;
17340;SDS011;8788;49.930;8.660;2023-01-30T09:21:04;11.25;;;6.93;;
17340;SDS011;8788;49.930;8.660;2023-01-30T09:23:32;12.30;;;7.30;;
17340;SDS011;8788;49.930;8.660;2023-01-30T09:26:00;9.98;;;6.07;;
17340;SDS011;8788;49.930;8.660;2023-01-30T09:28:27;9.07;;;5.28;;
17340;SDS011;8788;49.930;8.660;2023-01-30T09:30:55;9.60;;;6.05;;
17340;SDS011;8788;49.930;8.660;2023-01-30T09:33:23;7.95;;;5.25;;
17340;SDS011;8788;49.930;8.660;2023-01-30T09:35:50;8.90;;;5.07;;
17340;SDS011;8788;49.930;8.660;2023-01-30T09:38:18;13.15;;;5.15;;
17340;SDS011;8788;49.930;8.660;2023-01-30T09:40:48;8.75;;;5.95;;
17340;SDS011;8788;49.930;8.660;2023-01-30T09:43:32;8.88;;;5.35;;
17340;SDS011;8788;49.930;8.660;2023-01-30T09:46:17;9.27;;;5.43;;
17340;SDS011;8788;49.930;8.660;2023-01-30T09:48:58;7.18;;;4.75;;
17340;SDS011;8788;49.930;8.660;2023-01-30T09:51:34;7.78;;;5.10;;
17340;SDS011;8788;49.930;8.660;2023-01-30T09:54:15;7.88;;;4.50;;
17340;SDS011;8788;49.930;8.660;2023-01-30T09:56:51;5.30;;;3.47;;
17340;SDS011;8788;49.930;8.660;2023-01-30T09:59:24;7.68;;;4.65;;
17340;SDS011;8788;49.930;8.660;2023-01-30T10:01:59;6.13;;;4.13;;
17340;SDS011;8788;49.930;8.660;2023-01-30T10:04:39;7.38;;;4.72;;
17340;SDS011;8788;49.930;8.660;2023-01-30T10:07:12;4.07;;;3.38;;
17340;SDS011;8788;49.930;8.660;2023-01-30T10:09:46;5.82;;;3.47;;
17340;SDS011;8788;49.930;8.660;2023-01-30T10:12:26;6.22;;;4.05;;
17340;SDS011;8788;49.930;8.660;2023-01-30T10:15:10;5.32;;;3.88;;
17340;SDS011;8788;49.930;8.660;2023-01-30T10:17:48;5.15;;;3.83;;
17340;SDS011;8788;49.930;8.660;2023-01-30T10:20:35;4.15;;;3.55;;
17340;SDS011;8788;49.930;8.660;2023-01-30T10:23:11;7.07;;;3.33;;
17340;SDS011;8788;49.930;8.660;2023-01-30T10:25:55;5.45;;;3.83;;
17340;SDS011;8788;49.930;8.660;2023-01-30T10:28:28;3.95;;;3.22;;
17340;SDS011;8788;49.930;8.660;2023-01-30T10:31:01;5.97;;;3.78;;
17340;SDS011;8788;49.930;8.660;2023-01-30T10:33:32;4.60;;;3.28;;
17340;SDS011;8788;49.930;8.660;2023-01-30T10:36:04;7.30;;;3.92;;
17340;SDS011;8788;49.930;8.660;2023-01-30T10:38:37;3.88;;;3.00;;
17340;SDS011;8788;49.930;8.660;2023-01-30T10:41:11;6.45;;;3.35;;
17340;SDS011;8788;49.930;8.660;2023-01-30T10:43:45;4.90;;;3.55;;
17340;SDS011;8788;49.930;8.660;2023-01-30T10:46:25;4.25;;;2.80;;
17340;SDS011;8788;49.930;8.660;2023-01-30T10:49:12;3.83;;;2.85;;
17340;SDS011;8788;49.930;8.660;2023-01-30T10:51:47;4.68;;;3.50;;
17340;SDS011;8788;49.930;8.660;2023-01-30T10:54:22;3.70;;;3.05;;
17340;SDS011;8788;49.930;8.660;2023-01-30T10:56:56;3.88;;;2.75;;
17340;SDS011;8788;49.930;8.660;2023-01-30T10:59:31;3.42;;;2.97;;
17340;SDS011;8788;49.930;8.660;2023-01-30T11:02:17;3.33;;;2.75;;
17340;SDS011;8788;49.930;8.660;2023-01-30T11:04:51;4.10;;;2.75;;
17340;SDS011;8788;49.930;8.660;2023-01-30T11:07:23;6.15;;;3.08;;
17340;SDS011;8788;49.930;8.660;2023-01-30T11:09:50;3.03;;;2.58;;
17340;SDS011;8788;49.930;8.660;2023-01-30T11:12:17;4.38;;;2.63;;
17340;SDS011;8788;49.930;8.660;2023-01-30T11:14:51;3.55;;;2.45;;
17340;SDS011;8788;49.930;8.660;2023-01-30T11:17:27;3.47;;;2.67;;
17340;SDS011;8788;49.930;8.660;2023-01-30T11:19:56;3.55;;;2.10;;
17340;SDS011;8788;49.930;8.660;2023-01-30T11:22:30;3.92;;;2.90;;
17340;SDS011;8788;49.930;8.660;2023-01-30T11:25:00;3.10;;;2.45;;
17340;SDS011;8788;49.930;8.660;2023-01-30T11:27:31;2.50;;;2.30;;
17340;SDS011;8788;49.930;8.660;2023-01-30T11:30:04;3.05;;;2.05;;
17340;SDS011;8788;49.930;8.660;2023-01-30T11:32:39;2.38;;;1.70;;
17340;SDS011;8788;49.930;8.660;2023-01-30T11:37:53;4.43;;;2.78;;
17340;SDS011;8788;49.930;8.660;2023-01-30T11:40:36;4.88;;;4.15;;
17340;SDS011;8788;49.930;8.660;2023-01-30T11:43:09;4.45;;;4.05;;
17340;SDS011;8788;49.930;8.660;2023-01-30T11:45:38;4.22;;;3.83;;
17340;SDS011;8788;49.930;8.660;2023-01-30T11:48:12;2.78;;;2.58;;
17340;SDS011;8788;49.930;8.660;2023-01-30T11:50:44;2.28;;;1.90;;
17340;SDS011;8788;49.930;8.660;2023-01-30T11:53:23;1.90;;;1.70;;
17340;SDS011;8788;49.930;8.660;2023-01-30T11:55:56;1.85;;;1.75;;
17340;SDS011;8788;49.930;8.660;2023-01-30T11:58:28;1.70;;;1.60;;
17340;SDS011;8788;49.930;8.660;2023-01-30T12:00:56;2.75;;;2.10;;
17340;SDS011;8788;49.930;8.660;2023-01-30T12:03:26;1.80;;;1.70;;
17340;SDS011;8788;49.930;8.660;2023-01-30T12:05:54;2.08;;;1.67;;
17340;SDS011;8788;49.930;8.660;2023-01-30T12:08:24;3.45;;;1.92;;
17340;SDS011;8788;49.930;8.660;2023-01-30T12:10:54;1.33;;;1.20;;
17340;SDS011;8788;49.930;8.660;2023-01-30T12:13:28;1.02;;;1.02;;
17340;SDS011;8788;49.930;8.660;2023-01-30T12:16:05;2.05;;;1.50;;
17340;SDS011;8788;49.930;8.660;2023-01-30T12:18:45;1.17;;;1.08;;
17340;SDS011;8788;49.930;8.660;2023-01-30T12:21:25;1.52;;;1.25;;
17340;SDS011;8788;49.930;8.660;2023-01-30T12:24:02;1.30;;;1.20;;
17340;SDS011;8788;49.930;8.660;2023-01-30T12:26:39;0.98;;;0.95;;
17340;SDS011;8788;49.930;8.660;2023-01-30T12:29:15;0.95;;;0.95;;
17340;SDS011;8788;49.930;8.660;2023-01-30T12:32:01;1.52;;;1.42;;
17340;SDS011;8788;49.930;8.660;2023-01-30T12:34:33;3.40;;;1.42;;
17340;SDS011;8788;49.930;8.660;2023-01-30T12:37:03;1.15;;;1.05;;
17340;SDS011;8788;49.930;8.660;2023-01-30T12:39:46;1.33;;;1.23;;
17340;SDS011;8788;49.930;8.660;2023-01-30T12:42:27;3.13;;;2.17;;
17340;SDS011;8788;49.930;8.660;2023-01-30T12:45:15;1.40;;;1.30;;
17340;SDS011;8788;49.930;8.660;2023-01-30T12:47:57;2.38;;;1.77;;
17340;SDS011;8788;49.930;8.660;2023-01-30T12:50:42;1.92;;;1.42;;
17340;SDS011;8788;49.930;8.660;2023-01-30T12:53:29;2.10;;;1.58;;
17340;SDS011;8788;49.930;8.660;2023-01-30T12:58:58;3.13;;;1.95;;
17340;SDS011;8788;49.930;8.660;2023-01-30T13:01:32;1.95;;;1.58;;
17340;SDS011;8788;49.930;8.660;2023-01-30T13:04:11;1.25;;;1.10;;
17340;SDS011;8788;49.930;8.660;2023-01-30T13:06:56;2.72;;;2.03;;
17340;SDS011;8788;49.930;8.660;2023-01-30T13:09:37;1.67;;;1.58;;
17340;SDS011;8788;49.930;8.660;2023-01-30T13:12:15;3.45;;;2.65;;
17340;SDS011;8788;49.930;8.660;2023-01-30T13:14:50;2.08;;;1.83;;
17340;SDS011;8788;49.930;8.660;2023-01-30T13:17:37;2.53;;;1.98;;
17340;SDS011;8788;49.930;8.660;2023-01-30T13:20:16;4.75;;;1.88;;
17340;SDS011;8788;49.930;8.660;2023-01-30T13:22:58;1.75;;;1.65;;
17340;SDS011;8788;49.930;8.660;2023-01-30T13:25:31;2.42;;;1.70;;
17340;SDS011;8788;49.930;8.660;2023-01-30T13:28:04;2.00;;;1.80;;
17340;SDS011;8788;49.930;8.660;2023-01-30T13:30:37;3.63;;;1.73;;
17340;SDS011;8788;49.930;8.660;2023-01-30T13:33:08;1.63;;;1.50;;
17340;SDS011;8788;49.930;8.660;2023-01-30T13:35:40;4.65;;;1.88;;
17340;SDS011;8788;49.930;8.660;2023-01-30T13:38:13;2.70;;;1.27;;
17340;SDS011;8788;49.930;8.660;2023-01-30T13:40:45;2.35;;;1.70;;
17340;SDS011;8788;49.930;8.660;2023-01-30T13:43:17;2.83;;;1.70;;
17340;SDS011;8788;49.930;8.660;2023-01-30T13:45:49;1.52;;;1.42;;
17340;SDS011;8788;49.930;8.660;2023-01-30T13:48:24;2.67;;;1.98;;
17340;SDS011;8788;49.930;8.660;2023-01-30T13:51:06;2.63;;;1.58;;
17340;SDS011;8788;49.930;8.660;2023-01-30T13:53:59;1.85;;;1.70;;
17340;SDS011;8788;49.930;8.660;2023-01-30T13:56:36;2.10;;;1.83;;
17340;SDS011;8788;49.930;8.660;2023-01-30T13:59:10;1.75;;;1.38;;
17340;SDS011;8788;49.930;8.660;2023-01-30T14:04:44;3.88;;;2.03;;
17340;SDS011;8788;49.930;8.660;2023-01-30T14:07:14;3.50;;;2.40;;
17340;SDS011;8788;49.930;8.660;2023-01-30T14:09:47;5.40;;;2.67;;
17340;SDS011;8788;49.930;8.660;2023-01-30T14:12:16;2.80;;;1.90;;
17340;SDS011;8788;49.930;8.660;2023-01-30T14:14:56;3.30;;;2.35;;
17340;SDS011;8788;49.930;8.660;2023-01-30T14:17:26;1.90;;;1.73;;
17340;SDS011;8788;49.930;8.660;2023-01-30T14:19:57;2.42;;;2.10;;
17340;SDS011;8788;49.930;8.660;2023-01-30T14:22:31;2.75;;;2.53;;
17340;SDS011;8788;49.930;8.660;2023-01-30T14:37:44;3.08;;;2.50;;
17340;SDS011;8788;49.930;8.660;2023-01-30T14:40:26;3.55;;;2.70;;
17340;SDS011;8788;49.930;8.660;2023-01-30T14:46:06;3.30;;;2.55;;
17340;SDS011;8788;49.930;8.660;2023-01-30T14:49:00;3.33;;;2.42;;
17340;SDS011;8788;49.930;8.660;2023-01-30T14:51:31;8.55;;;4.07;;
17340;SDS011;8788;49.930;8.660;2023-01-30T14:54:05;3.60;;;2.35;;
17340;SDS011;8788;49.930;8.660;2023-01-30T14:56:39;7.28;;;2.92;;
17340;SDS011;8788;49.930;8.660;2023-01-30T14:59:15;4.35;;;2.83;;
17340;SDS011;8788;49.930;8.660;2023-01-30T15:02:01;6.20;;;3.25;;
17340;SDS011;8788;49.930;8.660;2023-01-30T15:04:39;4.65;;;2.75;;
17340;SDS011;8788;49.930;8.660;2023-01-30T15:07:10;4.35;;;2.92;;
17340;SDS011;8788;49.930;8.660;2023-01-30T15:09:43;4.00;;;2.85;;
17340;SDS011;8788;49.930;8.660;2023-01-30T15:15:16;3.88;;;1.98;;
17340;SDS011;8788;49.930;8.660;2023-01-30T15:20:51;3.40;;;1.52;;
17340;SDS011;8788;49.930;8.660;2023-01-30T15:23:55;3.55;;;1.40;;
17340;SDS011;8788;49.930;8.660;2023-01-30T15:26:44;6.55;;;1.77;;
17340;SDS011;8788;49.930;8.660;2023-01-30T15:29:25;5.22;;;2.08;;
17340;SDS011;8788;49.930;8.660;2023-01-30T15:32:13;3.10;;;1.50;;
17340;SDS011;8788;49.930;8.660;2023-01-30T15:34:49;7.15;;;3.28;;
17340;SDS011;8788;49.930;8.660;2023-01-30T15:37:30;5.90;;;2.92;;
17340;SDS011;8788;49.930;8.660;2023-01-30T15:40:09;8.80;;;2.92;;
17340;SDS011;8788;49.930;8.660;2023-01-30T15:42:44;6.72;;;2.92;;
17340;SDS011;8788;49.930;8.660;2023-01-30T15:45:14;4.80;;;1.13;;
17340;SDS011;8788;49.930;8.660;2023-01-30T15:47:52;2.83;;;1.58;;
17340;SDS011;8788;49.930;8.660;2023-01-30T15:50:28;6.38;;;1.52;;
17340;SDS011;8788;49.930;8.660;2023-01-30T15:52:56;2.30;;;1.38;;
17340;SDS011;8788;49.930;8.660;2023-01-30T15:55:23;6.00;;;1.35;;
17340;SDS011;8788;49.930;8.660;2023-01-30T15:57:55;4.05;;;1.20;;
17340;SDS011;8788;49.930;8.660;2023-01-30T16:00:25;2.03;;;1.23;;
17340;SDS011;8788;49.930;8.660;2023-01-30T16:02:54;3.45;;;1.83;;
17340;SDS011;8788;49.930;8.660;2023-01-30T16:05:23;4.90;;;2.03;;
17340;SDS011;8788;49.930;8.660;2023-01-30T16:07:51;2.10;;;1.35;;
17340;SDS011;8788;49.930;8.660;2023-01-30T16:10:20;10.13;;;1.25;;
17340;SDS011;8788;49.930;8.660;2023-01-30T16:12:49;4.78;;;2.10;;
17340;SDS011;8788;49.930;8.660;2023-01-30T16:15:22;5.30;;;1.50;;
17340;SDS011;8788;49.930;8.660;2023-01-30T16:17:58;3.47;;;1.40;;
17340;SDS011;8788;49.930;8.660;2023-01-30T16:20:27;6.18;;;1.90;;
17340;SDS011;8788;49.930;8.660;2023-01-30T16:22:57;8.57;;;1.45;;
17340;SDS011;8788;49.930;8.660;2023-01-30T16:25:24;1.75;;;1.27;;
17340;SDS011;8788;49.930;8.660;2023-01-30T16:27:58;3.50;;;1.50;;
17340;SDS011;8788;49.930;8.660;2023-01-30T16:30:27;1.88;;;1.52;;
17340;SDS011;8788;49.930;8.660;2023-01-30T16:32:55;3.25;;;1.45;;
17340;SDS011;8788;49.930;8.660;2023-01-30T16:35:27;1.52;;;0.95;;
17340;SDS011;8788;49.930;8.660;2023-01-30T16:37:58;3.53;;;1.25;;
17340;SDS011;8788;49.930;8.660;2023-01-30T16:40:28;3.65;;;1.23;;
17340;SDS011;8788;49.930;8.660;2023-01-30T16:43:13;7.03;;;2.40;;
17340;SDS011;8788;49.930;8.660;2023-01-30T16:48:56;5.57;;;1.63;;
17340;SDS011;8788;49.930;8.660;2023-01-30T16:51:28;4.72;;;1.52;;
17340;SDS011;8788;49.930;8.660;2023-01-30T16:53:57;6.47;;;1.90;;
17340;SDS011;8788;49.930;8.660;2023-01-30T16:56:27;7.55;;;2.58;;
17340;SDS011;8788;49.930;8.660;2023-01-30T16:58:57;8.90;;;1.65;;
17340;SDS011;8788;49.930;8.660;2023-01-30T17:01:32;1.92;;;1.70;;
17340;SDS011;8788;49.930;8.660;2023-01-30T17:04:06;6.07;;;2.38;;
17340;SDS011;8788;49.930;8.660;2023-01-30T17:06:43;6.72;;;2.95;;
17340;SDS011;8788;49.930;8.660;2023-01-30T17:09:40;8.13;;;3.10;;
17340;SDS011;8788;49.930;8.660;2023-01-30T17:15:28;5.18;;;2.60;;
17340;SDS011;8788;49.930;8.660;2023-01-30T17:17:57;7.25;;;2.25;;
17340;SDS011;8788;49.930;8.660;2023-01-30T17:20:35;2.42;;;1.70;;
17340;SDS011;8788;49.930;8.660;2023-01-30T17:23:06;4.88;;;1.73;;
17340;SDS011;8788;49.930;8.660;2023-01-30T17:25:36;3.53;;;1.75;;
17340;SDS011;8788;49.930;8.660;2023-01-30T17:28:06;4.43;;;1.88;;
17340;SDS011;8788;49.930;8.660;2023-01-30T17:30:34;5.18;;;2.05;;
17340;SDS011;8788;49.930;8.660;2023-01-30T17:33:01;5.22;;;2.03;;
17340;SDS011;8788;49.930;8.660;2023-01-30T17:35:29;15.20;;;2.47;;
17340;SDS011;8788;49.930;8.660;2023-01-30T17:37:56;5.85;;;1.90;;
17340;SDS011;8788;49.930;8.660;2023-01-30T17:40:26;3.97;;;1.60;;
17340;SDS011;8788;49.930;8.660;2023-01-30T17:42:58;4.30;;;2.10;;
17340;SDS011;8788;49.930;8.660;2023-01-30T17:45:25;9.52;;;2.13;;
17340;SDS011;8788;49.930;8.660;2023-01-30T17:47:52;6.05;;;2.40;;
17340;SDS011;8788;49.930;8.660;2023-01-30T17:50:20;6.40;;;2.53;;
17340;SDS011;8788;49.930;8.660;2023-01-30T17:52:48;4.03;;;2.63;;
17340;SDS011;8788;49.930;8.660;2023-01-30T17:55:15;5.38;;;2.55;;
17340;SDS011;8788;49.930;8.660;2023-01-30T17:57:44;4.15;;;2.30;;
17340;SDS011;8788;49.930;8.660;2023-01-30T18:00:14;5.85;;;2.08;;
17340;SDS011;8788;49.930;8.660;2023-01-30T18:02:43;4.60;;;2.00;;
17340;SDS011;8788;49.930;8.660;2023-01-30T18:05:10;4.15;;;1.63;;
17340;SDS011;8788;49.930;8.660;2023-01-30T18:07:37;2.25;;;2.03;;
17340;SDS011;8788;49.930;8.660;2023-01-30T18:10:09;4.90;;;2.28;;
17340;SDS011;8788;49.930;8.660;2023-01-30T18:12:39;5.88;;;2.00;;
17340;SDS011;8788;49.930;8.660;2023-01-30T18:15:08;3.50;;;1.73;;
17340;SDS011;8788;49.930;8.660;2023-01-30T18:17:37;5.25;;;1.92;;
17340;SDS011;8788;49.930;8.660;2023-01-30T18:20:09;3.80;;;2.17;;
17340;SDS011;8788;49.930;8.660;2023-01-30T18:22:38;5.70;;;2.47;;
17340;SDS011;8788;49.930;8.660;2023-01-30T18:25:07;6.88;;;1.90;;
17340;SDS011;8788;49.930;8.660;2023-01-30T18:27:37;4.53;;;1.60;;
17340;SDS011;8788;49.930;8.660;2023-01-30T18:30:05;6.85;;;1.70;;
17340;SDS011;8788;49.930;8.660;2023-01-30T18:32:33;7.15;;;2.08;;
17340;SDS011;8788;49.930;8.660;2023-01-30T18:35:01;7.00;;;2.03;;
17340;SDS011;8788;49.930;8.660;2023-01-30T18:37:28;3.13;;;1.60;;
17340;SDS011;8788;49.930;8.660;2023-01-30T18:39:55;5.82;;;2.30;;
17340;SDS011;8788;49.930;8.660;2023-01-30T18:42:24;9.70;;;3.40;;
17340;SDS011;8788;49.930;8.660;2023-01-30T18:44:51;3.83;;;2.17;;
17340;SDS011;8788;49.930;8.660;2023-01-30T18:47:18;11.40;;;2.65;;
17340;SDS011;8788;49.930;8.660;2023-01-30T18:49:45;7.88;;;2.60;;
17340;SDS011;8788;49.930;8.660;2023-01-30T18:52:12;7.75;;;2.92;;
17340;SDS011;8788;49.930;8.660;2023-01-30T18:54:39;3.72;;;1.85;;
17340;SDS011;8788;49.930;8.660;2023-01-30T18:57:07;18.45;;;5.40;;
17340;SDS011;8788;49.930;8.660;2023-01-30T18:59:35;3.65;;;2.38;;
17340;SDS011;8788;49.930;8.660;2023-01-30T19:02:03;7.47;;;2.00;;
17340;SDS011;8788;49.930;8.660;2023-01-30T19:04:30;11.27;;;1.83;;
17340;SDS011;8788;49.930;8.660;2023-01-30T19:06:58;8.32;;;2.33;;
17340;SDS011;8788;49.930;8.660;2023-01-30T19:09:26;4.97;;;1.92;;
17340;SDS011;8788;49.930;8.660;2023-01-30T19:11:53;5.40;;;2.03;;
17340;SDS011;8788;49.930;8.660;2023-01-30T19:14:38;4.07;;;1.90;;
17340;SDS011;8788;49.930;8.660;2023-01-30T19:17:06;5.72;;;2.40;;
17340;SDS011;8788;49.930;8.660;2023-01-30T19:19:33;8.43;;;1.77;;
17340;SDS011;8788;49.930;8.660;2023-01-30T19:22:01;4.80;;;2.25;;
17340;SDS011;8788;49.930;8.660;2023-01-30T19:24:28;6.57;;;2.25;;
17340;SDS011;8788;49.930;8.660;2023-01-30T19:26:55;6.63;;;2.10;;
17340;SDS011;8788;49.930;8.660;2023-01-30T19:29:22;5.03;;;2.17;;
17340;SDS011;8788;49.930;8.660;2023-01-30T19:31:50;5.78;;;2.08;;
17340;SDS011;8788;49.930;8.660;2023-01-30T19:34:18;6.85;;;1.52;;
17340;SDS011;8788;49.930;8.660;2023-01-30T19:36:45;9.52;;;2.25;;
17340;SDS011;8788;49.930;8.660;2023-01-30T19:39:12;5.55;;;2.17;;
17340;SDS011;8788;49.930;8.660;2023-01-30T19:41:39;4.80;;;2.00;;
17340;SDS011;8788;49.930;8.660;2023-01-30T19:44:06;10.88;;;2.35;;
17340;SDS011;8788;49.930;8.660;2023-01-30T19:46:36;7.40;;;2.47;;
17340;SDS011;8788;49.930;8.660;2023-01-30T19:49:04;5.50;;;2.22;;
17340;SDS011;8788;49.930;8.660;2023-01-30T19:51:32;6.13;;;2.70;;
17340;SDS011;8788;49.930;8.660;2023-01-30T19:54:01;6.93;;;2.47;;
17340;SDS011;8788;49.930;8.660;2023-01-30T19:56:30;3.60;;;3.15;;
17340;SDS011;8788;49.930;8.660;2023-01-30T19:58:58;4.65;;;2.90;;
17340;SDS011;8788;49.930;8.660;2023-01-30T20:01:27;4.72;;;3.50;;
17340;SDS011;8788;49.930;8.660;2023-01-30T20:03:57;4.60;;;2.92;;